Time;durP1;ratioP1;P1;durP2;ratioP2;P2;SDS_P1;SDS_P2;PMS_P1;PMS_P2;Temp;Humidity;BMP_temperature;BMP_pressure;BME280_temperature;BME280_humidity;BME280_pressure;Samples;Min_cycle;Max_cycle;Signal;HPM_P1;HPM_P2
2022/06/29 00:00:38;;;;;;;9.63;8.73;;;16.90;99.90;;;;;;4922040;29;20730;-78
2022/06/29 00:03:05;;;;;;;11.70;10.80;;;16.80;99.90;;;;;;4905741;29;20216;-80
2022/06/29 00:05:32;;;;;;;10.70;9.90;;;16.80;99.90;;;;;;4923158;29;20298;-80
2022/06/29 00:07:59;;;;;;;9.30;8.60;;;16.80;99.90;;;;;;4922478;29;20209;-80
2022/06/29 00:10:26;;;;;;;11.83;10.93;;;16.80;99.90;;;;;;4905730;29;20246;-78
2022/06/29 00:12:54;;;;;;;11.03;10.23;;;16.70;99.90;;;;;;4905273;29;20218;-80
2022/06/29 00:15:21;;;;;;;10.43;9.53;;;16.70;99.90;;;;;;4905211;29;20196;-79
2022/06/29 00:17:50;;;;;;;9.90;9.20;;;16.70;99.90;;;;;;4906664;29;20204;-79
2022/06/29 00:20:17;;;;;;;9.23;8.53;;;16.60;99.90;;;;;;4923249;29;20198;-81
2022/06/29 00:22:45;;;;;;;7.20;6.60;;;16.60;99.90;;;;;;4906057;29;20213;-80
2022/06/29 00:25:13;;;;;;;10.13;9.20;;;16.50;99.90;;;;;;4887454;29;20363;-78
2022/06/29 00:27:41;;;;;;;12.43;11.47;;;16.50;99.90;;;;;;4888013;29;20206;-79
2022/06/29 00:30:09;;;;;;;11.33;10.53;;;16.50;99.90;;;;;;4921385;29;20214;-79
2022/06/29 00:32:36;;;;;;;8.43;7.67;;;16.50;99.90;;;;;;4906092;29;20218;-79
2022/06/29 00:35:06;;;;;;;13.53;12.63;;;16.50;99.90;;;;;;4923599;29;20204;-80
2022/06/29 00:37:32;;;;;;;11.60;10.73;;;16.40;99.90;;;;;;4905943;29;20256;-80
2022/06/29 00:40:00;;;;;;;9.43;8.63;;;16.40;99.90;;;;;;4906957;29;20211;-80
2022/06/29 00:42:27;;;;;;;13.90;13.00;;;16.40;99.90;;;;;;4908833;29;20227;-78
2022/06/29 00:44:54;;;;;;;14.07;13.07;;;16.40;99.90;;;;;;4920701;29;20214;-79
2022/06/29 00:47:22;;;;;;;13.83;12.83;;;16.40;99.90;;;;;;4929337;29;20271;-80
2022/06/29 00:49:49;;;;;;;12.93;12.10;;;16.30;99.90;;;;;;4927124;29;20289;-79
2022/06/29 00:52:20;;;;;;;13.80;12.80;;;16.30;99.90;;;;;;4921103;29;20223;-78
2022/06/29 00:54:51;;;;;;;13.47;12.50;;;16.30;99.90;;;;;;4920760;29;20219;-78
2022/06/29 00:57:21;;;;;;;13.67;12.73;;;16.20;99.90;;;;;;4903449;29;20206;-79
2022/06/29 00:59:50;;;;;;;13.67;12.70;;;16.20;99.90;;;;;;4920798;29;20290;-78
2022/06/29 01:02:19;;;;;;;13.67;12.77;;;16.20;99.90;;;;;;4920411;29;20227;-77
2022/06/29 01:04:48;;;;;;;14.13;13.10;;;16.20;99.90;;;;;;4920455;29;20235;-79
2022/06/29 01:07:17;;;;;;;13.87;12.97;;;16.20;99.90;;;;;;4920450;29;20271;-79
2022/06/29 01:09:44;;;;;;;14.13;13.13;;;16.20;99.90;;;;;;4902632;29;20278;-78
2022/06/29 01:12:11;;;;;;;14.60;13.60;;;16.20;99.90;;;;;;4918504;29;20734;-78
2022/06/29 01:14:40;;;;;;;13.87;12.97;;;16.20;99.90;;;;;;4904186;29;20215;-77
2022/06/29 01:17:07;;;;;;;14.47;13.47;;;16.20;99.90;;;;;;4919701;29;20557;-77
2022/06/29 01:19:34;;;;;;;14.33;13.33;;;16.20;99.90;;;;;;4903149;29;20593;-77
2022/06/29 01:22:08;;;;;;;13.87;12.97;;;16.20;99.90;;;;;;4909480;29;20263;-79
2022/06/29 01:24:35;;;;;;;14.03;13.13;;;16.20;99.90;;;;;;4915608;29;20206;-78
2022/06/29 01:27:02;;;;;;;13.70;12.80;;;16.20;99.90;;;;;;4901890;29;20224;-78
2022/06/29 01:29:30;;;;;;;14.10;13.17;;;16.20;99.90;;;;;;4902613;29;20207;-78
2022/06/29 01:31:57;;;;;;;15.20;14.20;;;16.20;99.90;;;;;;4903888;29;20220;-78
2022/06/29 01:34:27;;;;;;;15.03;13.93;;;16.20;99.90;;;;;;4919156;29;20210;-78
2022/06/29 01:36:54;;;;;;;14.53;13.53;;;16.20;99.90;;;;;;4918972;29;20299;-78
2022/06/29 01:39:22;;;;;;;14.77;13.77;;;16.20;99.90;;;;;;4919160;29;20604;-79
2022/06/29 01:41:49;;;;;;;14.33;13.43;;;16.10;99.90;;;;;;4901655;29;20284;-78
2022/06/29 01:44:16;;;;;;;14.83;13.80;;;16.10;99.90;;;;;;4919073;29;20247;-78
2022/06/29 01:46:43;;;;;;;13.93;13.03;;;16.10;99.90;;;;;;4901707;29;20328;-78
2022/06/29 01:49:10;;;;;;;14.70;13.70;;;16.10;99.90;;;;;;4919063;29;20206;-79
2022/06/29 01:51:37;;;;;;;15.37;14.07;;;16.10;99.90;;;;;;4901714;29;20234;-79
2022/06/29 01:54:04;;;;;;;15.27;14.27;;;16.00;99.90;;;;;;4918536;29;20204;-77
2022/06/29 01:56:32;;;;;;;14.80;13.80;;;16.00;99.90;;;;;;4900944;29;20210;-78
2022/06/29 01:58:59;;;;;;;14.40;13.40;;;15.90;99.90;;;;;;4918866;29;20202;-77
2022/06/29 02:01:26;;;;;;;14.80;13.80;;;15.90;99.90;;;;;;4901361;29;20230;-78
2022/06/29 02:03:53;;;;;;;14.33;13.37;;;15.80;99.90;;;;;;4918362;29;20688;-78
2022/06/29 02:06:20;;;;;;;16.27;15.17;;;15.90;99.90;;;;;;4918105;29;20215;-78
2022/06/29 02:08:47;;;;;;;15.47;14.37;;;15.90;99.90;;;;;;4918641;29;20641;-77
2022/06/29 02:11:14;;;;;;;15.37;14.37;;;15.90;99.90;;;;;;4918370;29;20572;-78
2022/06/29 02:13:42;;;;;;;16.20;15.10;;;15.90;99.90;;;;;;4901475;29;20195;-79
2022/06/29 02:16:09;;;;;;;16.13;15.03;;;15.90;99.90;;;;;;4918045;29;20602;-78
2022/06/29 02:18:36;;;;;;;16.27;15.27;;;15.90;99.90;;;;;;4918982;29;20211;-78
2022/06/29 02:21:03;;;;;;;16.77;15.67;;;15.80;99.90;;;;;;4917577;29;20235;-77
2022/06/29 02:23:30;;;;;;;17.07;15.97;;;15.80;99.90;;;;;;4901178;29;20657;-77
2022/06/29 02:25:57;;;;;;;16.60;15.47;;;15.80;99.90;;;;;;4902412;29;20241;-77
2022/06/29 02:28:24;;;;;;;16.90;15.80;;;15.90;99.90;;;;;;4918468;29;20206;-77
2022/06/29 02:36:21;;;;;;;17.10;15.90;;;15.90;99.90;;;;;;4895233;29;20203;-78
2022/06/29 02:38:48;;;;;;;12.00;11.20;;;15.90;99.90;;;;;;4918695;29;20222;-78
2022/06/29 02:41:15;;;;;;;12.67;11.63;;;15.90;99.90;;;;;;4918747;29;20704;-76
2022/06/29 02:43:42;;;;;;;17.37;16.27;;;15.90;99.90;;;;;;4903100;29;20206;-79
2022/06/29 02:46:10;;;;;;;16.20;15.20;;;15.90;99.90;;;;;;4920190;29;20212;-79
2022/06/29 02:48:37;;;;;;;16.40;15.30;;;15.80;99.90;;;;;;4920338;29;20196;-79
2022/06/29 02:51:04;;;;;;;16.93;15.83;;;15.80;99.90;;;;;;4916334;29;20225;-78
2022/06/29 02:53:31;;;;;;;16.77;15.67;;;15.80;99.90;;;;;;4899994;29;20203;-78
2022/06/29 02:55:57;;;;;;;17.00;15.90;;;15.80;99.90;;;;;;4902493;29;20579;-78
2022/06/29 02:58:36;;;;;;;;;;;;;;;;;;;;;
2022/06/29 03:01:36;;;;;;;17.13;16.13;;;15.70;99.90;;;;;;4910181;29;20604;-81
2022/06/29 03:12:29;;;;;;;13.53;12.63;;;15.60;99.90;;;;;;4925252;29;20304;-79
2022/06/29 03:15:08;;;;;;;13.40;12.50;;;15.60;99.90;;;;;;4869731;29;20204;-78
2022/06/29 03:17:36;;;;;;;13.50;12.60;;;15.60;99.90;;;;;;4918943;29;20207;-80
2022/06/29 03:20:04;;;;;;;13.80;12.90;;;15.60;99.90;;;;;;4918665;29;20743;-79
2022/06/29 03:22:31;;;;;;;11.07;10.30;;;15.60;99.90;;;;;;4919062;29;20666;-80
2022/06/29 03:24:58;;;;;;;11.27;10.47;;;15.60;99.90;;;;;;4918969;29;20199;-79
2022/06/29 03:27:25;;;;;;;11.83;10.93;;;15.60;99.90;;;;;;4901604;29;20212;-78
2022/06/29 03:29:52;;;;;;;11.03;10.23;;;15.60;99.90;;;;;;4901651;29;20213;-82
2022/06/29 03:32:19;;;;;;;10.80;10.00;;;15.60;99.90;;;;;;4912832;29;20242;-81
2022/06/29 03:34:47;;;;;;;10.60;9.80;;;15.60;99.90;;;;;;4901193;29;20249;-81
2022/06/29 03:37:14;;;;;;;11.20;10.40;;;15.60;99.90;;;;;;4901521;29;20221;-81
2022/06/29 03:39:41;;;;;;;11.60;10.77;;;15.70;99.90;;;;;;4915315;29;20214;-81
2022/06/29 03:42:08;;;;;;;10.97;10.17;;;15.70;99.90;;;;;;4901339;29;20215;-80
2022/06/29 03:44:35;;;;;;;9.87;9.07;;;15.70;99.90;;;;;;4899656;29;20232;-81
2022/06/29 03:47:02;;;;;;;8.50;7.70;;;15.70;99.90;;;;;;4900523;29;20228;-80
2022/06/29 03:49:29;;;;;;;12.43;11.53;;;15.80;99.90;;;;;;4918082;29;20237;-81
2022/06/29 03:51:58;;;;;;;9.10;8.20;;;15.70;99.90;;;;;;4920274;23;20248;-79
2022/06/29 03:54:25;;;;;;;7.87;7.17;;;15.80;99.90;;;;;;4917092;29;20200;-79
2022/06/29 03:56:51;;;;;;;9.40;8.10;;;15.90;99.90;;;;;;4935708;29;20204;-79
2022/06/29 03:59:18;;;;;;;13.73;12.60;;;15.90;99.90;;;;;;4915167;29;20202;-79
2022/06/29 04:01:46;;;;;;;15.20;14.10;;;15.90;99.90;;;;;;4921789;29;20766;-79
2022/06/29 04:04:13;;;;;;;11.23;10.23;;;15.90;99.90;;;;;;4901987;29;20254;-79
2022/06/29 04:06:40;;;;;;;10.50;9.70;;;16.00;99.90;;;;;;4898477;29;20224;-79
2022/06/29 04:09:08;;;;;;;11.80;10.70;;;16.00;99.90;;;;;;4919118;29;20624;-79
2022/06/29 04:11:49;;;;;;;12.67;11.67;;;16.00;99.90;;;;;;4897451;29;20274;-79
2022/06/29 04:14:16;;;;;;;8.50;7.80;;;16.10;99.90;;;;;;4912649;29;20210;-79
2022/06/29 04:16:43;;;;;;;7.80;7.10;;;16.20;99.90;;;;;;4919797;29;20255;-79
2022/06/29 04:19:10;;;;;;;12.60;11.63;;;16.20;99.90;;;;;;4894914;29;20606;-79
2022/06/29 04:21:37;;;;;;;8.40;7.60;;;16.30;99.90;;;;;;4902491;29;20303;-79
2022/06/29 04:24:04;;;;;;;11.77;10.87;;;16.30;99.90;;;;;;4901037;29;20237;-79
2022/06/29 04:26:33;;;;;;;7.57;6.87;;;16.40;99.90;;;;;;4919307;29;20207;-79
2022/06/29 04:28:59;;;;;;;15.40;14.40;;;16.40;99.90;;;;;;4896613;29;20216;-79
2022/06/29 04:31:26;;;;;;;13.57;12.67;;;16.50;99.90;;;;;;4918872;29;20227;-79
2022/06/29 04:33:53;;;;;;;9.53;8.83;;;16.60;99.90;;;;;;4918621;29;20195;-80
2022/06/29 04:36:20;;;;;;;7.23;6.67;;;16.60;99.90;;;;;;4901537;29;20211;-79
2022/06/29 04:38:47;;;;;;;7.00;6.40;;;16.70;99.90;;;;;;4899724;29;20219;-79
2022/06/29 04:41:15;;;;;;;7.50;6.80;;;16.70;99.90;;;;;;4917111;29;20264;-79
2022/06/29 04:43:43;;;;;;;7.13;6.43;;;16.80;99.90;;;;;;4901096;29;20664;-79
2022/06/29 04:46:22;;;;;;;7.87;6.47;;;16.80;99.90;;;;;;4908184;29;20628;-79
2022/06/29 04:48:53;;;;;;;7.50;6.80;;;16.80;99.90;;;;;;4921201;29;20679;-79
2022/06/29 04:51:20;;;;;;;8.17;7.47;;;16.80;99.90;;;;;;4920887;29;20234;-83
2022/06/29 04:53:48;;;;;;;8.37;7.67;;;16.90;99.90;;;;;;4903456;29;20715;-79
2022/06/29 04:56:16;;;;;;;11.07;10.37;;;16.90;99.90;;;;;;4903133;29;20213;-79
2022/06/29 04:58:44;;;;;;;9.65;8.95;;;17.00;99.90;;;;;;4922296;29;20438;-79
2022/06/29 05:01:11;;;;;;;9.10;8.40;;;17.10;99.90;;;;;;4896829;29;20223;-79
2022/06/29 05:03:38;;;;;;;9.63;8.93;;;17.20;99.90;;;;;;4904124;29;20247;-79
2022/06/29 05:06:05;;;;;;;9.40;8.70;;;17.30;99.90;;;;;;4904059;29;20243;-79
2022/06/29 05:08:32;;;;;;;9.07;8.37;;;17.40;99.90;;;;;;4920999;29;20222;-79
2022/06/29 05:10:58;;;;;;;9.70;8.90;;;17.40;99.90;;;;;;4901011;29;20522;-79
2022/06/29 05:13:25;;;;;;;9.83;9.03;;;17.50;99.90;;;;;;4903725;29;20262;-80
2022/06/29 05:15:53;;;;;;;8.00;7.30;;;17.60;99.90;;;;;;4899193;29;20693;-79
2022/06/29 05:18:20;;;;;;;9.00;8.30;;;17.70;99.90;;;;;;4920921;29;20250;-79
2022/06/29 05:20:47;;;;;;;7.20;6.60;;;17.70;99.90;;;;;;4921159;29;20203;-79
2022/06/29 05:23:14;;;;;;;8.15;7.55;;;17.80;99.90;;;;;;4919730;29;20447;-80
2022/06/29 05:25:41;;;;;;;7.00;6.45;;;17.80;99.90;;;;;;4921430;29;20442;-79
2022/06/29 05:28:08;;;;;;;6.23;5.73;;;18.00;99.90;;;;;;4903921;29;20223;-80
2022/06/29 05:30:35;;;;;;;6.67;6.17;;;18.00;99.90;;;;;;4904871;29;20211;-79
2022/06/29 05:33:04;;;;;;;6.60;6.00;;;18.10;99.90;;;;;;4920494;29;20216;-79
2022/06/29 05:35:33;;;;;;;6.53;5.93;;;18.20;99.90;;;;;;4899817;29;20615;-79
2022/06/29 05:38:00;;;;;;;6.33;5.73;;;18.40;99.90;;;;;;4902495;29;20286;-79
2022/06/29 05:40:27;;;;;;;6.53;5.93;;;18.60;99.90;;;;;;4903714;29;20288;-79
2022/06/29 05:42:54;;;;;;;5.87;5.47;;;18.90;99.90;;;;;;4896943;29;20232;-79
2022/06/29 05:45:21;;;;;;;9.40;8.50;;;19.30;99.90;;;;;;4896223;29;20213;-78
2022/06/29 05:47:47;;;;;;;8.30;7.70;;;19.40;99.90;;;;;;4919354;29;20220;-78
2022/06/29 05:50:15;;;;;;;9.43;8.53;;;19.30;99.90;;;;;;4912785;29;20251;-78
2022/06/29 05:52:42;;;;;;;13.90;12.87;;;19.20;99.90;;;;;;4919521;29;20229;-78
2022/06/29 05:55:09;;;;;;;14.23;13.07;;;19.00;99.90;;;;;;4917936;29;20201;-78
2022/06/29 05:57:36;;;;;;;8.30;7.20;;;18.80;99.90;;;;;;4918044;29;20200;-78
2022/06/29 06:00:06;;;;;;;7.70;6.83;;;18.70;99.90;;;;;;4894891;29;20240;-78
2022/06/29 06:02:38;;;;;;;12.80;11.67;;;18.60;99.90;;;;;;4919770;29;20280;-78
2022/06/29 06:05:06;;;;;;;6.83;6.13;;;18.60;99.90;;;;;;4918490;29;20213;-78
2022/06/29 06:07:34;;;;;;;14.13;13.13;;;18.60;99.90;;;;;;4918879;29;20747;-78
2022/06/29 06:10:01;;;;;;;15.00;14.10;;;18.70;99.90;;;;;;4902147;29;20264;-78
2022/06/29 06:12:30;;;;;;;6.33;5.73;;;18.70;99.90;;;;;;4919836;29;20229;-79
2022/06/29 06:14:58;;;;;;;7.03;6.17;;;18.70;99.90;;;;;;4903107;29;20212;-81
2022/06/29 06:17:27;;;;;;;6.30;5.70;;;18.70;99.90;;;;;;4919904;29;20196;-79
2022/06/29 06:19:54;;;;;;;13.87;12.97;;;18.80;99.90;;;;;;4887327;29;20205;-79
2022/06/29 06:22:21;;;;;;;15.80;14.80;;;18.80;99.90;;;;;;4907112;29;20273;-79
2022/06/29 06:24:49;;;;;;;14.27;13.27;;;19.00;99.90;;;;;;4896610;29;20210;-79
2022/06/29 06:27:16;;;;;;;6.20;5.70;;;19.10;99.90;;;;;;4903159;29;20216;-79
2022/06/29 06:29:44;;;;;;;11.57;10.70;;;19.20;99.90;;;;;;4903894;29;20213;-79
2022/06/29 06:32:11;;;;;;;6.50;5.90;;;19.30;99.90;;;;;;4913167;29;20224;-79
2022/06/29 06:34:38;;;;;;;12.50;11.70;;;19.40;99.90;;;;;;4920787;29;20264;-79
2022/06/29 06:37:05;;;;;;;6.57;5.97;;;19.50;99.90;;;;;;4920015;29;20269;-79
2022/06/29 06:39:31;;;;;;;8.13;7.53;;;19.70;99.90;;;;;;4906825;29;20270;-79
2022/06/29 06:41:59;;;;;;;6.23;5.73;;;19.90;99.90;;;;;;4902004;29;20251;-79
2022/06/29 06:44:25;;;;;;;13.40;12.50;;;20.10;99.90;;;;;;4901971;29;20279;-79
2022/06/29 06:46:52;;;;;;;13.00;12.00;;;20.30;99.90;;;;;;4901302;29;20213;-79
2022/06/29 06:49:23;;;;;;;10.37;9.57;;;20.80;99.90;;;;;;4920969;29;20255;-84
2022/06/29 06:51:50;;;;;;;6.80;6.20;;;21.10;99.90;;;;;;4912268;29;20600;-79
2022/06/29 06:54:17;;;;;;;13.87;12.87;;;21.60;99.90;;;;;;4919560;29;20207;-79
2022/06/29 06:56:44;;;;;;;6.47;5.90;;;22.50;99.90;;;;;;4903517;29;20689;-78
2022/06/29 06:59:12;;;;;;;6.83;6.13;;;23.10;99.90;;;;;;4898920;29;20661;-79
2022/06/29 07:01:39;;;;;;;12.20;11.40;;;23.80;99.90;;;;;;4919555;29;20220;-80
2022/06/29 07:04:06;;;;;;;9.97;9.17;;;24.60;99.90;;;;;;4895192;29;20255;-80
2022/06/29 07:06:33;;;;;;;8.20;6.60;;;25.30;99.90;;;;;;4895847;29;20201;-80
2022/06/29 07:09:00;;;;;;;12.60;11.80;;;25.90;99.90;;;;;;4895864;29;20276;-80
2022/06/29 07:11:26;;;;;;;7.80;7.20;;;26.50;99.90;;;;;;4897284;29;20251;-80
2022/06/29 07:13:53;;;;;;;11.93;11.07;;;26.80;99.90;;;;;;4917956;29;20207;-80
2022/06/29 07:16:21;;;;;;;7.50;6.67;;;26.60;99.90;;;;;;4902074;29;20199;-81
2022/06/29 07:18:49;;;;;;;11.00;10.07;;;26.60;99.90;;;;;;4902435;29;20208;-80
2022/06/29 07:21:16;;;;;;;10.40;9.70;;;26.60;99.90;;;;;;4912624;29;20211;-80
2022/06/29 07:23:43;;;;;;;8.37;7.77;;;26.40;99.90;;;;;;4919881;29;20255;-80
2022/06/29 07:26:09;;;;;;;8.47;7.47;;;26.30;99.90;;;;;;4917561;29;20936;-80
2022/06/29 07:28:38;;;;;;;5.50;5.00;;;26.00;99.90;;;;;;4918753;29;20228;-80
2022/06/29 07:31:05;;;;;;;5.33;4.93;;;25.70;99.90;;;;;;4919001;29;20219;-80
2022/06/29 07:33:33;;;;;;;7.10;6.57;;;25.40;99.90;;;;;;4920163;29;20260;-80
2022/06/29 07:36:00;;;;;;;11.70;10.80;;;25.50;99.90;;;;;;4902648;29;20208;-80
2022/06/29 07:38:27;;;;;;;5.37;4.90;;;25.70;99.90;;;;;;4897153;29;20200;-80
2022/06/29 07:40:54;;;;;;;5.70;5.20;;;26.00;99.90;;;;;;4903767;29;20231;-80
2022/06/29 07:43:21;;;;;;;8.67;4.47;;;26.00;99.90;;;;;;4919433;29;20253;-80
2022/06/29 07:45:48;;;;;;;8.60;7.80;;;26.00;99.90;;;;;;4896514;29;20698;-80
2022/06/29 07:48:14;;;;;;;11.20;10.43;;;26.40;99.90;;;;;;4918294;29;20276;-80
2022/06/29 07:50:42;;;;;;;10.20;9.40;;;26.60;99.90;;;;;;4912881;29;20208;-80
2022/06/29 07:53:09;;;;;;;10.77;9.87;;;26.80;99.90;;;;;;4917725;29;20666;-80
2022/06/29 07:55:36;;;;;;;5.20;4.80;;;26.70;99.90;;;;;;4902659;29;20693;-80
2022/06/29 07:58:03;;;;;;;7.37;5.20;;;26.60;99.90;;;;;;4919779;29;20677;-80
2022/06/29 08:00:30;;;;;;;9.97;9.27;;;26.10;99.90;;;;;;4918828;29;20257;-80
2022/06/29 08:02:57;;;;;;;6.67;5.80;;;25.90;99.90;;;;;;4899831;29;20588;-80
2022/06/29 08:05:24;;;;;;;11.33;10.53;;;26.20;99.90;;;;;;4906323;29;20280;-80
2022/06/29 08:07:52;;;;;;;8.97;8.17;;;26.90;99.90;;;;;;4896253;29;20365;-80
2022/06/29 08:10:19;;;;;;;11.27;10.57;;;27.20;99.90;;;;;;4901452;29;20804;-79
2022/06/29 08:12:46;;;;;;;12.43;11.73;;;27.20;99.90;;;;;;4898675;29;20283;-80
2022/06/29 08:15:15;;;;;;;12.03;11.20;;;26.90;99.90;;;;;;4899846;29;20204;-80
2022/06/29 08:17:42;;;;;;;5.57;5.07;;;26.90;99.90;;;;;;4901682;29;20283;-79
2022/06/29 08:20:09;;;;;;;4.77;4.40;;;27.00;99.90;;;;;;4921751;29;20200;-80
2022/06/29 08:22:36;;;;;;;8.07;5.10;;;27.10;99.90;;;;;;4905186;29;20231;-80
2022/06/29 08:25:05;;;;;;;8.50;7.90;;;27.30;99.90;;;;;;4921288;29;20200;-80
2022/06/29 08:27:33;;;;;;;10.67;9.97;;;27.40;99.90;;;;;;4905760;29;20204;-80
2022/06/29 08:29:59;;;;;;;6.07;5.57;;;27.30;99.90;;;;;;4920915;29;20200;-80
2022/06/29 08:32:26;;;;;;;4.60;4.20;;;27.70;99.90;;;;;;4900665;29;20228;-80
2022/06/29 08:34:58;;;;;;;8.17;7.47;;;28.00;99.90;;;;;;4920830;29;20479;-80
2022/06/29 08:37:24;;;;;;;10.23;9.47;;;28.40;99.90;;;;;;4901265;29;20200;-80
2022/06/29 08:39:51;;;;;;;10.73;10.03;;;28.60;99.90;;;;;;4900301;29;20208;-80
2022/06/29 08:42:22;;;;;;;11.83;11.13;;;28.50;99.90;;;;;;4904219;29;20278;-80
2022/06/29 08:44:50;;;;;;;11.87;11.10;;;28.70;99.90;;;;;;4906981;29;20264;-80
2022/06/29 08:47:17;;;;;;;10.80;10.00;;;29.00;99.90;;;;;;4912819;29;20283;-80
2022/06/29 08:49:44;;;;;;;11.30;10.60;;;29.20;99.90;;;;;;4910028;29;20638;-80
2022/06/29 08:52:12;;;;;;;11.20;10.17;;;29.00;99.90;;;;;;4906397;29;20804;-80
2022/06/29 08:54:42;;;;;;;5.33;4.83;;;28.50;99.90;;;;;;4923605;29;20239;-80
2022/06/29 08:57:09;;;;;;;6.77;6.17;;;28.20;99.90;;;;;;4923120;29;20203;-80
2022/06/29 08:59:38;;;;;;;4.73;4.23;;;28.20;99.90;;;;;;4902731;29;20686;-80
2022/06/29 09:02:06;;;;;;;10.60;9.83;;;28.80;99.90;;;;;;4922452;29;20302;-80
2022/06/29 09:04:33;;;;;;;5.07;4.60;;;29.10;99.90;;;;;;4922778;29;20199;-80
2022/06/29 09:07:00;;;;;;;8.47;7.87;;;29.40;99.90;;;;;;4913544;29;20200;-80
2022/06/29 09:09:27;;;;;;;10.20;9.50;;;29.70;99.90;;;;;;4933379;29;20218;-79
2022/06/29 09:11:54;;;;;;;11.10;10.23;;;29.50;99.90;;;;;;4929102;29;20240;-80
2022/06/29 09:14:23;;;;;;;8.73;8.13;;;29.00;99.90;;;;;;4911878;29;20246;-80
2022/06/29 09:16:56;;;;;;;7.80;7.30;;;29.30;99.90;;;;;;4932461;29;20199;-81
2022/06/29 09:19:25;;;;;;;10.27;9.67;;;29.70;99.90;;;;;;4928087;29;20200;-80
2022/06/29 09:21:53;;;;;;;10.40;9.67;;;30.00;99.90;;;;;;4912288;29;20253;-80
2022/06/29 09:24:22;;;;;;;10.33;9.63;;;30.40;99.90;;;;;;4906225;29;20260;-80
2022/06/29 09:26:53;;;;;;;9.97;9.27;;;30.30;99.90;;;;;;4930131;29;20200;-80
2022/06/29 09:29:22;;;;;;;10.43;9.63;;;30.50;99.90;;;;;;4916373;29;20215;-79
2022/06/29 09:32:28;;;;;;;9.97;9.27;;;30.40;99.90;;;;;;4932429;29;20248;-79
2022/06/29 09:34:54;;;;;;;9.80;9.10;;;30.40;99.90;;;;;;4854199;29;20216;-80
2022/06/29 09:37:23;;;;;;;10.60;9.90;;;30.00;99.90;;;;;;4854451;29;20235;-80
2022/06/29 09:39:51;;;;;;;11.03;10.23;;;30.10;99.90;;;;;;4873860;29;20208;-80
2022/06/29 09:42:19;;;;;;;10.53;9.83;;;30.40;99.90;;;;;;4922641;29;20228;-80
2022/06/29 09:44:47;;;;;;;11.30;10.60;;;30.70;99.90;;;;;;4910942;29;20216;-80
2022/06/29 09:47:16;;;;;;;10.90;10.13;;;30.90;99.90;;;;;;4905120;29;20203;-79
2022/06/29 09:49:45;;;;;;;10.40;9.70;;;31.40;99.90;;;;;;4919685;29;20280;-80
2022/06/29 09:52:13;;;;;;;9.57;8.77;;;31.70;99.90;;;;;;4917405;29;20224;-79
2022/06/29 09:54:44;;;;;;;6.07;5.60;;;32.00;99.90;;;;;;4907187;29;20211;-80
2022/06/29 09:57:13;;;;;;;5.77;5.23;;;31.80;99.90;;;;;;4911544;29;20207;-79
2022/06/29 10:02:38;;;;;;;6.27;5.77;;;30.30;99.90;;;;;;4912704;29;20216;-79
2022/06/29 10:05:09;;;;;;;7.20;6.70;;;29.70;99.90;;;;;;4913146;29;20214;-80
2022/06/29 10:07:38;;;;;;;4.60;4.20;;;29.30;99.90;;;;;;4917620;29;20208;-79
2022/06/29 10:10:09;;;;;;;6.67;6.20;;;29.20;99.90;;;;;;4916985;29;20200;-79
2022/06/29 10:16:05;;;;;;;6.47;6.00;;;30.20;99.90;;;;;;4875113;29;20254;-79
2022/06/29 10:18:52;;;;;;;6.37;5.87;;;30.60;99.90;;;;;;4906348;29;20231;-78
2022/06/29 10:21:24;;;;;;;6.70;6.20;;;30.70;99.90;;;;;;4906633;29;20282;-78
2022/06/29 10:23:52;;;;;;;4.47;4.07;;;30.60;99.90;;;;;;4917038;29;20613;-78
2022/06/29 10:26:41;;;;;;;4.87;4.33;;;30.60;99.90;;;;;;4917318;29;20200;-79
2022/06/29 10:29:33;;;;;;;8.80;8.20;;;30.00;99.90;;;;;;4915185;29;20199;-79
2022/06/29 10:32:06;;;;;;;6.67;6.03;;;29.60;99.90;;;;;;4906192;29;20793;-79
2022/06/29 10:35:05;;;;;;;7.57;6.97;;;29.00;99.90;;;;;;4911962;29;20188;-79
2022/06/29 10:37:31;;;;;;;9.93;9.27;;;28.70;99.90;;;;;;4909193;29;20196;-79
2022/06/29 10:40:01;;;;;;;6.43;4.80;;;28.50;99.90;;;;;;4898386;29;20250;-79
2022/06/29 10:45:38;;;;;;;5.57;4.60;;;28.20;99.90;;;;;;4912156;29;20195;-80
2022/06/29 10:48:23;;;;;;;9.07;7.80;;;28.20;99.90;;;;;;4899699;29;20210;-80
2022/06/29 10:50:50;;;;;;;4.43;4.03;;;28.30;99.90;;;;;;4891039;29;20211;-80
2022/06/29 10:53:20;;;;;;;4.70;4.33;;;28.20;99.90;;;;;;4894871;29;20239;-79
2022/06/29 10:55:52;;;;;;;4.87;4.47;;;28.20;99.90;;;;;;4916377;29;20203;-78
2022/06/29 10:58:20;;;;;;;4.80;4.40;;;28.30;99.90;;;;;;4915220;29;20196;-79
2022/06/29 11:00:50;;;;;;;5.07;4.60;;;28.30;99.90;;;;;;4898404;29;20322;-81
2022/06/29 11:03:19;;;;;;;4.70;4.30;;;28.00;99.90;;;;;;4899305;29;20196;-78
2022/06/29 11:14:06;;;;;;;8.90;8.30;;;28.10;99.90;;;;;;4909573;29;20715;-79
2022/06/29 11:16:35;;;;;;;9.00;8.40;;;28.20;99.90;;;;;;4916576;29;20199;-79
2022/06/29 11:19:03;;;;;;;9.33;8.67;;;28.40;99.90;;;;;;4915747;29;20212;-79
2022/06/29 11:21:29;;;;;;;8.90;8.20;;;28.70;99.90;;;;;;4915471;29;20216;-79
2022/06/29 11:24:05;;;;;;;9.13;8.53;;;29.00;99.90;;;;;;4916361;29;20235;-79
2022/06/29 11:26:34;;;;;;;6.57;6.03;;;29.40;99.90;;;;;;4911795;29;20195;-79
2022/06/29 11:29:01;;;;;;;7.30;6.70;;;29.60;99.90;;;;;;4898757;29;20204;-79
2022/06/29 11:31:28;;;;;;;6.57;6.10;;;29.80;99.90;;;;;;4892709;29;20223;-79
2022/06/29 11:33:56;;;;;;;7.33;6.80;;;29.90;99.90;;;;;;4915295;29;20616;-79
2022/06/29 11:36:25;;;;;;;4.97;4.47;;;30.00;99.90;;;;;;4915884;29;20200;-79
2022/06/29 11:38:54;;;;;;;7.03;6.53;;;30.10;99.90;;;;;;4898366;29;20307;-79
2022/06/29 11:41:25;;;;;;;9.83;9.03;;;29.80;99.90;;;;;;4916468;29;20276;-78
2022/06/29 11:44:06;;;;;;;9.07;8.47;;;29.40;99.90;;;;;;4899038;29;20211;-79
2022/06/29 11:46:35;;;;;;;8.83;8.23;;;29.10;99.90;;;;;;4915566;29;20198;-79
2022/06/29 11:51:53;;;;;;;6.97;6.37;;;29.30;99.90;;;;;;4893556;29;20724;-81
2022/06/29 11:54:35;;;;;;;10.00;9.10;;;29.00;99.90;;;;;;4917072;29;20199;-78
2022/06/29 11:57:05;;;;;;;5.33;4.83;;;28.60;99.90;;;;;;4896085;29;20620;-80
2022/06/29 11:59:32;;;;;;;6.87;6.27;;;28.50;99.90;;;;;;4897375;29;20213;-79
2022/06/29 12:02:00;;;;;;;8.30;7.70;;;28.30;99.90;;;;;;4917864;29;20223;-85
2022/06/29 12:04:29;;;;;;;9.97;9.17;;;28.00;99.90;;;;;;4919464;29;20214;-78
2022/06/29 12:07:02;;;;;;;9.83;9.10;;;27.50;99.90;;;;;;4919925;29;20678;-78
2022/06/29 12:09:29;;;;;;;10.00;9.30;;;27.30;99.90;;;;;;4902886;29;20206;-79
2022/06/29 12:11:56;;;;;;;9.30;8.70;;;27.20;99.90;;;;;;4919747;29;20228;-79
2022/06/29 12:14:24;;;;;;;9.43;8.73;;;27.30;99.90;;;;;;4919947;29;20212;-79
2022/06/29 12:16:51;;;;;;;9.80;9.20;;;27.50;99.90;;;;;;4918856;29;20713;-78
2022/06/29 12:19:18;;;;;;;10.03;9.33;;;27.60;99.90;;;;;;4899562;29;20224;-78
2022/06/29 12:21:45;;;;;;;10.03;9.37;;;27.70;99.90;;;;;;4895302;29;20240;-78
2022/06/29 12:24:12;;;;;;;10.17;9.30;;;27.90;99.90;;;;;;4900266;29;20216;-78
2022/06/29 12:26:39;;;;;;;6.00;5.50;;;28.10;99.90;;;;;;4919017;29;20204;-80
2022/06/29 12:29:06;;;;;;;8.03;7.37;;;28.60;99.90;;;;;;4901488;29;20256;-79
2022/06/29 12:31:36;;;;;;;9.40;8.70;;;28.70;99.90;;;;;;4893976;29;20271;-79
2022/06/29 12:34:03;;;;;;;9.50;8.90;;;28.80;99.90;;;;;;4899581;29;20204;-78
2022/06/29 12:36:30;;;;;;;9.63;8.93;;;28.90;99.90;;;;;;4902104;29;20249;-78
2022/06/29 12:38:57;;;;;;;9.53;8.83;;;29.00;99.90;;;;;;4919115;29;20584;-78
2022/06/29 12:41:24;;;;;;;9.93;9.20;;;28.80;99.90;;;;;;4898343;29;20311;-77
2022/06/29 12:43:51;;;;;;;10.27;9.37;;;28.50;99.90;;;;;;4918579;29;20283;-78
2022/06/29 12:46:17;;;;;;;4.93;4.50;;;28.20;99.90;;;;;;4897545;29;20758;-78
2022/06/29 12:48:45;;;;;;;6.03;5.53;;;28.00;99.90;;;;;;4901778;29;20212;-77
2022/06/29 12:51:13;;;;;;;6.83;4.53;;;28.00;99.90;;;;;;4918081;29;20224;-78
2022/06/29 12:53:39;;;;;;;4.80;4.40;;;28.00;99.90;;;;;;4918435;29;20282;-77
2022/06/29 12:56:07;;;;;;;4.47;4.07;;;28.10;99.90;;;;;;4918414;29;20200;-77
2022/06/29 12:58:34;;;;;;;5.33;4.83;;;28.40;99.90;;;;;;4918662;29;20203;-78
2022/06/29 13:01:01;;;;;;;4.60;4.20;;;28.60;99.90;;;;;;4918332;29;20227;-78
2022/06/29 13:03:28;;;;;;;5.00;4.50;;;28.70;99.90;;;;;;4917955;29;20200;-78
2022/06/29 13:05:56;;;;;;;5.13;4.63;;;28.60;99.90;;;;;;4917352;29;20232;-77
2022/06/29 13:08:22;;;;;;;5.37;4.80;;;28.50;99.90;;;;;;4899934;29;20216;-77
2022/06/29 13:10:49;;;;;;;5.47;4.47;;;28.30;99.90;;;;;;4901427;29;20208;-77
2022/06/29 13:13:16;;;;;;;5.13;4.70;;;28.20;99.90;;;;;;4918021;29;20607;-77
2022/06/29 13:15:43;;;;;;;5.00;4.40;;;28.10;99.90;;;;;;4892710;29;20670;-77
2022/06/29 13:18:10;;;;;;;5.40;4.33;;;28.20;99.90;;;;;;4905623;29;20204;-77
2022/06/29 13:20:37;;;;;;;5.57;5.00;;;28.40;99.90;;;;;;4895146;29;20275;-77